createdAt,value
2018-11-21T00:00:05.589Z,3.89
2018-11-21T00:01:05.556Z,3.93
2018-11-21T00:02:05.540Z,3.96
2018-11-21T00:03:05.536Z,3.93
2018-11-21T00:04:05.457Z,3.98
2018-11-21T00:05:05.425Z,3.88
2018-11-21T00:06:05.393Z,3.90
2018-11-21T00:07:05.361Z,3.90
2018-11-21T00:08:05.334Z,3.92
2018-11-21T00:09:05.296Z,3.96
2018-11-21T00:10:05.273Z,3.92
2018-11-21T00:11:05.233Z,3.92
2018-11-21T00:12:05.198Z,3.96
2018-11-21T00:13:05.164Z,3.92
2018-11-21T00:14:05.132Z,3.95
2018-11-21T00:17:05.035Z,3.90
2018-11-21T00:18:05.008Z,3.89
2018-11-21T00:19:04.974Z,3.92
2018-11-21T00:20:04.936Z,3.86
2018-11-21T00:21:04.916Z,3.82
2018-11-21T00:22:04.876Z,3.88
2018-11-21T00:23:04.837Z,3.84
2018-11-21T00:24:04.809Z,3.92
2018-11-21T00:25:04.785Z,3.92
2018-11-21T00:26:04.738Z,3.84
2018-11-21T00:27:05.023Z,3.82
2018-11-21T00:28:04.673Z,3.80
2018-11-21T00:29:04.641Z,3.89
2018-11-21T00:30:04.607Z,3.71
2018-11-21T00:31:04.579Z,3.89
2018-11-21T00:32:04.542Z,3.88
2018-11-21T00:33:04.519Z,3.86
2018-11-21T00:34:04.488Z,3.77
2018-11-21T00:35:04.455Z,3.82
2018-11-21T00:36:04.620Z,3.75
2018-11-21T00:37:04.379Z,3.78
2018-11-21T00:38:04.362Z,3.75
2018-11-21T00:39:04.326Z,3.74
2018-11-21T00:40:04.293Z,3.77
2018-11-21T00:41:04.252Z,3.77
2018-11-21T00:42:04.215Z,3.75
2018-11-21T00:43:04.182Z,3.72
2018-11-21T00:44:04.150Z,3.77
2018-11-21T00:45:04.116Z,3.72
2018-11-21T00:46:04.099Z,3.72
2018-11-21T00:47:04.070Z,3.75
2018-11-21T00:48:04.032Z,3.77
2018-11-21T00:49:03.999Z,3.80
2018-11-21T00:50:03.953Z,3.77
2018-11-21T00:51:03.921Z,3.78
2018-11-21T00:52:03.894Z,3.72
2018-11-21T00:53:03.866Z,3.80
2018-11-21T00:54:03.822Z,3.75
2018-11-21T00:55:03.790Z,3.75
2018-11-21T00:56:03.757Z,3.72
2018-11-21T00:57:03.725Z,3.71
2018-11-21T00:58:03.690Z,3.77
2018-11-21T00:59:03.663Z,3.74
2018-11-21T01:00:03.626Z,3.78
2018-11-21T01:01:03.594Z,3.75
2018-11-21T01:02:03.564Z,3.78
2018-11-21T01:03:03.533Z,3.77
2018-11-21T01:04:03.495Z,3.72
2018-11-21T01:05:03.466Z,3.75
2018-11-21T01:06:03.429Z,3.78
2018-11-21T01:07:03.399Z,3.74
2018-11-21T01:08:03.368Z,3.75
2018-11-21T01:09:03.332Z,3.78
2018-11-21T01:10:03.308Z,3.75
2018-11-21T01:11:03.268Z,3.75
2018-11-21T01:12:03.238Z,3.78
2018-11-21T01:13:03.200Z,3.78
2018-11-21T01:14:03.167Z,3.72
2018-11-21T01:15:03.145Z,3.72
2018-11-21T01:16:04.207Z,3.74
2018-11-21T01:17:03.073Z,3.71
2018-11-21T01:18:03.036Z,3.72
2018-11-21T01:19:03.014Z,3.74
2018-11-21T01:20:02.970Z,3.80
2018-11-21T01:21:02.941Z,3.75
2018-11-21T01:22:02.907Z,3.77
2018-11-21T01:23:02.874Z,3.71
2018-11-21T01:24:02.845Z,3.74
2018-11-21T01:25:03.012Z,3.77
2018-11-21T01:26:02.773Z,3.75
2018-11-21T01:27:02.744Z,3.70
2018-11-21T01:28:02.719Z,3.72
2018-11-21T01:29:02.675Z,3.72
2018-11-21T01:30:02.649Z,3.71
2018-11-21T01:31:02.611Z,3.68
2018-11-21T01:32:02.577Z,3.70
2018-11-21T01:33:09.394Z,3.74
2018-11-21T01:34:02.522Z,3.71
2018-11-21T01:35:02.479Z,3.68
2018-11-21T01:36:02.446Z,3.78
2018-11-21T01:37:02.414Z,3.74
2018-11-21T01:38:02.382Z,3.74
2018-11-21T01:39:02.348Z,3.78
2018-11-21T01:40:02.318Z,3.72
2018-11-21T01:41:02.282Z,3.75
2018-11-21T01:42:02.249Z,3.77
2018-11-21T01:43:02.216Z,3.77
2018-11-21T01:44:02.183Z,3.72
2018-11-21T01:45:02.154Z,3.75
2018-11-21T01:46:02.118Z,3.78
2018-11-21T01:47:02.089Z,3.80
2018-11-21T01:48:02.055Z,3.78
2018-11-21T01:49:02.023Z,3.78
2018-11-21T01:50:02.493Z,3.78
2018-11-21T01:51:01.956Z,3.77
2018-11-21T01:52:01.922Z,3.78
2018-11-21T01:53:01.924Z,3.75
2018-11-21T01:54:01.855Z,3.72
2018-11-21T01:55:01.823Z,3.77
2018-11-21T01:56:01.789Z,3.77
2018-11-21T01:57:01.757Z,3.75
2018-11-21T01:58:01.723Z,3.71
2018-11-21T01:59:01.737Z,3.75
2018-11-21T02:00:01.665Z,3.78
2018-11-21T02:01:01.638Z,3.77
2018-11-21T02:02:01.593Z,3.77
2018-11-21T02:03:01.560Z,3.71
2018-11-21T02:04:01.527Z,3.75
2018-11-21T02:05:01.495Z,3.78
2018-11-21T02:06:01.461Z,3.77
2018-11-21T02:07:01.437Z,3.75
2018-11-21T02:08:01.399Z,3.78
2018-11-21T02:09:01.363Z,3.75
2018-11-21T02:10:01.359Z,3.75
2018-11-21T02:11:01.298Z,3.78
2018-11-21T02:12:01.278Z,3.80
2018-11-21T02:13:01.237Z,3.75
2018-11-21T02:14:01.202Z,3.78
2018-11-21T02:15:01.373Z,3.71
2018-11-21T02:16:01.134Z,3.74
2018-11-21T02:17:01.104Z,3.80
2018-11-21T02:18:01.068Z,3.64
2018-11-21T02:19:01.036Z,3.75
2018-11-21T02:20:01.003Z,3.72
2018-11-21T02:21:00.973Z,3.75
2018-11-21T02:22:00.937Z,3.77
2018-11-21T02:23:00.907Z,3.77
2018-11-21T02:24:00.872Z,3.71
2018-11-21T02:25:00.849Z,3.74
2018-11-21T02:26:00.806Z,3.70
2018-11-21T02:27:00.774Z,3.71
2018-11-21T02:28:00.740Z,3.63
2018-11-21T02:29:00.910Z,3.70
2018-11-21T02:30:00.835Z,3.67
2018-11-21T02:31:00.649Z,3.71
2018-11-21T02:32:00.610Z,3.68
2018-11-21T02:33:00.577Z,3.74
2018-11-21T02:34:00.547Z,3.64
2018-11-21T02:35:00.511Z,3.68
2018-11-21T02:36:00.478Z,3.75
2018-11-21T02:37:00.446Z,3.70
2018-11-21T02:38:00.414Z,3.72
2018-11-21T02:39:00.383Z,3.71
2018-11-21T02:40:00.347Z,3.64
2018-11-21T02:41:00.320Z,3.70
2018-11-21T02:42:00.282Z,3.80
2018-11-21T02:43:00.249Z,3.75
2018-11-21T02:44:00.219Z,3.68
2018-11-21T02:45:00.184Z,3.71
2018-11-21T02:46:00.150Z,3.71
2018-11-21T02:47:00.138Z,3.74
2018-11-21T02:48:00.088Z,3.78
2018-11-21T02:49:00.052Z,3.75
2018-11-21T02:50:00.021Z,3.64
2018-11-21T02:50:59.991Z,3.68
2018-11-21T02:51:59.958Z,3.75
2018-11-21T02:52:59.936Z,3.75
2018-11-21T02:54:01.098Z,3.71
2018-11-21T02:54:59.889Z,3.78
2018-11-21T02:55:59.822Z,3.71
2018-11-21T02:56:59.808Z,3.71
2018-11-21T02:57:59.764Z,3.63
2018-11-21T02:58:59.726Z,3.62
2018-11-21T02:59:59.690Z,3.64
2018-11-21T03:00:59.867Z,3.62
2018-11-21T03:01:59.626Z,3.68
2018-11-21T03:02:59.592Z,3.71
2018-11-21T03:03:59.561Z,3.71
2018-11-21T03:04:59.528Z,3.71
2018-11-21T03:05:59.503Z,3.62
2018-11-21T03:06:59.461Z,3.62
2018-11-21T03:07:59.428Z,3.67
2018-11-21T03:08:59.396Z,3.67
2018-11-21T03:09:59.680Z,3.67
2018-11-21T03:10:59.336Z,3.67
2018-11-21T03:11:59.318Z,3.68
2018-11-21T03:12:59.273Z,3.68
2018-11-21T03:13:59.233Z,3.67
2018-11-21T03:14:59.214Z,3.64
2018-11-21T03:15:59.166Z,3.62
2018-11-21T03:16:59.143Z,3.64
2018-11-21T03:17:59.314Z,3.63
2018-11-21T03:18:59.068Z,3.64
2018-11-21T03:20:59.003Z,3.62
2018-11-21T03:21:58.974Z,3.62
2018-11-21T03:22:59.141Z,3.72
2018-11-21T03:23:58.904Z,3.68
2018-11-21T03:24:58.873Z,3.64
2018-11-21T03:25:58.838Z,3.59
2018-11-21T03:26:58.805Z,3.67
2018-11-21T03:27:58.775Z,3.68
2018-11-21T03:28:58.741Z,3.63
2018-11-21T03:29:58.727Z,3.68
2018-11-21T03:30:58.685Z,3.60
2018-11-21T03:31:58.662Z,3.59
2018-11-21T03:32:58.609Z,3.60
2018-11-21T03:33:58.574Z,3.64
2018-11-21T03:34:58.561Z,3.63
2018-11-21T03:35:58.533Z,3.68
2018-11-21T03:36:58.477Z,3.63
2018-11-21T03:37:58.446Z,3.70
2018-11-21T03:38:58.424Z,3.71
2018-11-21T03:39:58.381Z,3.64
2018-11-21T03:40:58.353Z,3.64
2018-11-21T03:41:58.463Z,3.72
2018-11-21T03:42:58.292Z,3.64
2018-11-21T03:43:58.249Z,3.64
2018-11-21T03:44:58.230Z,3.74
2018-11-21T03:45:58.190Z,3.68
2018-11-21T03:46:58.149Z,3.64
2018-11-21T03:47:58.433Z,3.62
2018-11-21T03:48:58.100Z,3.68
2018-11-21T03:49:58.054Z,3.59
2018-11-21T03:50:58.023Z,3.70
2018-11-21T03:51:57.987Z,3.64
2018-11-21T03:52:57.963Z,3.57
2018-11-21T03:54:57.897Z,3.59
2018-11-21T03:55:57.864Z,3.62
2018-11-21T03:56:57.833Z,3.60
2018-11-21T03:57:57.938Z,3.57
2018-11-21T03:58:57.755Z,3.68
2018-11-21T03:59:57.723Z,3.63
2018-11-21T04:00:57.690Z,3.60
2018-11-21T04:01:57.663Z,3.64
2018-11-21T04:02:57.638Z,3.54
2018-11-21T04:03:57.602Z,3.56
2018-11-21T04:04:57.594Z,3.59
2018-11-21T04:05:57.526Z,3.56
2018-11-21T04:06:57.503Z,3.62
2018-11-21T04:07:57.461Z,3.57
2018-11-21T04:08:57.427Z,3.63
2018-11-21T04:09:57.406Z,3.57
2018-11-21T04:10:57.363Z,3.62
2018-11-21T04:11:57.331Z,3.59
2018-11-21T04:12:57.294Z,3.63
2018-11-21T04:13:57.262Z,3.62
2018-11-21T04:14:57.228Z,3.54
2018-11-21T04:15:57.350Z,3.63
2018-11-21T04:16:57.166Z,3.53
2018-11-21T04:17:57.135Z,3.53
2018-11-21T04:18:57.109Z,3.53
2018-11-21T04:19:57.065Z,3.59
2018-11-21T04:20:57.032Z,3.56
2018-11-21T04:21:57.002Z,3.57
2018-11-21T04:22:56.988Z,3.57
2018-11-21T04:23:56.934Z,3.54
2018-11-21T04:24:56.902Z,3.60
2018-11-21T04:25:57.069Z,3.54
2018-11-21T04:26:56.837Z,3.57
2018-11-21T04:27:56.814Z,3.59
2018-11-21T04:28:56.777Z,3.64
2018-11-21T04:29:56.736Z,3.63
2018-11-21T04:30:56.704Z,3.45
2018-11-21T04:31:56.671Z,3.54
2018-11-21T04:33:56.629Z,3.50
2018-11-21T04:34:56.581Z,3.54
2018-11-21T04:35:56.539Z,3.49
2018-11-21T04:36:56.517Z,3.46
2018-11-21T04:37:56.488Z,3.44
2018-11-21T04:38:56.457Z,3.45
2018-11-21T04:39:56.418Z,3.42
2018-11-21T04:40:56.379Z,3.46
2018-11-21T04:41:56.357Z,3.50
2018-11-21T04:42:56.321Z,3.56
2018-11-21T04:43:56.489Z,3.42
2018-11-21T04:44:56.244Z,3.45
2018-11-21T04:46:56.181Z,3.45
2018-11-21T04:47:56.153Z,3.42
2018-11-21T04:48:56.131Z,3.57
2018-11-21T04:49:56.076Z,3.42
2018-11-21T04:50:56.046Z,3.45
2018-11-21T04:52:55.980Z,3.53
2018-11-21T04:53:55.954Z,3.49
2018-11-21T04:54:55.917Z,3.44
2018-11-21T04:55:55.902Z,3.44
2018-11-21T04:56:55.865Z,3.50
2018-11-21T04:57:55.825Z,3.46
2018-11-21T04:59:55.761Z,3.49
2018-11-21T05:01:55.683Z,3.39
2018-11-21T05:02:55.671Z,3.44
2018-11-21T05:03:55.630Z,3.44
2018-11-21T05:04:55.585Z,3.49
2018-11-21T05:05:55.566Z,3.45
2018-11-21T05:06:55.534Z,3.45
2018-11-21T05:07:55.500Z,3.44
2018-11-21T05:09:55.420Z,3.45
2018-11-21T05:10:55.391Z,3.42
2018-11-21T05:11:55.369Z,3.44
2018-11-21T05:12:55.547Z,3.45
2018-11-21T05:13:55.605Z,3.44
2018-11-21T05:14:55.270Z,3.39
2018-11-21T05:15:55.438Z,3.35
2018-11-21T05:16:55.411Z,3.37
2018-11-21T05:17:55.170Z,3.28
2018-11-21T05:18:55.127Z,3.30
2018-11-21T05:19:55.101Z,3.28
2018-11-21T05:20:55.074Z,3.30
2018-11-21T05:21:55.040Z,3.37
2018-11-21T05:22:55.006Z,3.31
2018-11-21T05:23:54.969Z,3.33
2018-11-21T05:24:54.926Z,3.20
2018-11-21T05:25:54.909Z,3.26
2018-11-21T05:26:54.873Z,3.37
2018-11-21T05:27:55.046Z,3.34
2018-11-21T05:28:54.810Z,3.28
2018-11-21T05:29:54.772Z,3.23
2018-11-21T05:32:37.048Z,3.30
2018-11-21T05:35:01.302Z,3.25
2018-11-21T05:36:01.061Z,3.33
2018-11-21T05:37:01.031Z,3.16
2018-11-21T05:38:00.998Z,3.23
2018-11-21T05:39:00.966Z,3.23
2018-11-21T05:40:00.928Z,3.31
2018-11-21T05:41:00.898Z,3.34
2018-11-21T05:42:00.865Z,3.28
2018-11-21T05:43:00.829Z,3.30
2018-11-21T05:44:00.795Z,3.23
2018-11-21T05:45:00.764Z,3.16
2018-11-21T05:46:00.742Z,3.22
2018-11-21T05:47:00.703Z,3.23
2018-11-21T05:48:00.662Z,3.17
2018-11-21T05:49:00.635Z,3.15
2018-11-21T05:50:00.599Z,3.25
2018-11-21T05:51:00.565Z,3.12
2018-11-21T05:52:00.530Z,3.15
2018-11-21T05:53:00.497Z,3.20
2018-11-21T05:54:00.467Z,3.23
2018-11-21T05:55:00.430Z,3.25
2018-11-21T05:56:00.397Z,3.22
2018-11-21T05:57:00.365Z,3.22
2018-11-21T05:58:00.330Z,3.16
2018-11-21T05:59:00.303Z,3.22
2018-11-21T06:00:00.265Z,3.15
2018-11-21T06:01:00.232Z,3.07
2018-11-21T06:02:00.200Z,3.12
2018-11-21T06:03:00.171Z,3.08
2018-11-21T06:04:00.134Z,3.08
2018-11-21T06:05:00.103Z,3.13
2018-11-21T06:06:00.068Z,3.16
2018-11-21T06:07:00.046Z,3.13
2018-11-21T06:08:00.000Z,3.10
2018-11-21T06:09:02.588Z,2.98
2018-11-21T06:09:59.934Z,3.12
2018-11-21T06:11:00.152Z,3.04
2018-11-21T06:12:04.312Z,3.08
2018-11-21T06:12:59.836Z,3.12
2018-11-21T06:13:59.803Z,3.13
2018-11-21T06:15:42.114Z,3.16
2018-11-21T06:16:41.879Z,3.04
2018-11-21T06:17:42.387Z,2.95
2018-11-21T06:18:41.812Z,3.08
2018-11-21T06:19:41.784Z,3.10
2018-11-21T06:20:41.749Z,3.05
2018-11-21T06:21:41.713Z,3.05
2018-11-21T06:22:41.678Z,2.94
2018-11-21T06:23:41.850Z,3.02
2018-11-21T06:24:41.613Z,3.01
2018-11-21T06:25:41.585Z,2.99
2018-11-21T06:26:41.549Z,2.94
2018-11-21T06:27:41.514Z,2.99
2018-11-21T06:28:41.480Z,2.98
2018-11-21T06:29:41.450Z,3.04
2018-11-21T06:30:41.415Z,3.05
2018-11-21T06:31:41.381Z,2.94
2018-11-21T06:32:41.348Z,2.97
2018-11-21T06:34:41.293Z,2.94
2018-11-21T06:36:41.225Z,2.95
2018-11-21T06:37:41.387Z,2.98
2018-11-21T06:38:41.148Z,3.02
2018-11-21T06:39:41.130Z,2.94
2018-11-21T06:40:41.081Z,2.98
2018-11-21T06:41:41.052Z,2.99
2018-11-21T06:42:41.016Z,2.92
2018-11-21T06:43:40.983Z,2.95
2018-11-21T06:44:40.948Z,2.94
2018-11-21T06:45:40.925Z,2.97
2018-11-21T06:46:40.894Z,2.94
2018-11-21T06:47:40.859Z,2.95
2018-11-21T06:48:40.825Z,2.98
2018-11-21T06:49:40.793Z,2.98
2018-11-21T06:50:40.750Z,2.87
2018-11-21T06:51:40.715Z,2.77
2018-11-21T06:52:40.694Z,2.83
2018-11-21T06:54:41.030Z,2.86
2018-11-21T06:55:40.596Z,2.81
2018-11-21T06:56:40.561Z,2.79
2018-11-21T06:57:40.535Z,2.79
2018-11-21T06:58:40.489Z,2.79
2018-11-21T06:59:40.453Z,2.76
2018-11-21T07:00:40.416Z,2.77
2018-11-21T07:01:40.384Z,2.81
2018-11-21T07:02:40.352Z,2.68
2018-11-21T07:03:40.321Z,2.69
2018-11-21T07:04:40.287Z,2.69
2018-11-21T07:05:40.249Z,2.77
2018-11-21T07:06:40.217Z,2.83
2018-11-21T07:07:40.184Z,2.80
2018-11-21T07:08:40.150Z,2.69
2018-11-21T07:09:40.117Z,2.66
2018-11-21T07:10:40.086Z,2.77
2018-11-21T07:11:40.056Z,2.71
2018-11-21T07:12:40.017Z,2.76
2018-11-21T07:13:39.993Z,2.83
2018-11-21T07:14:39.953Z,2.81
2018-11-21T07:15:39.922Z,2.86
2018-11-21T07:16:39.887Z,2.83
2018-11-21T07:17:39.850Z,2.80
2018-11-21T07:18:39.817Z,2.77
2018-11-21T07:19:39.783Z,2.81
2018-11-21T07:20:39.750Z,2.77
2018-11-21T07:21:39.729Z,2.73
2018-11-21T07:22:39.895Z,2.80
2018-11-21T07:23:39.650Z,2.83
2018-11-21T07:24:39.626Z,2.97
2018-11-21T07:25:39.603Z,2.95
2018-11-21T07:26:42.374Z,2.87
2018-11-21T07:27:39.722Z,2.80
2018-11-21T07:28:39.482Z,2.76
2018-11-21T07:29:39.653Z,2.76
2018-11-21T07:30:39.623Z,2.81
2018-11-21T07:31:39.394Z,2.79
2018-11-21T07:32:39.350Z,2.80
2018-11-21T07:33:39.746Z,2.74
2018-11-21T07:34:39.295Z,2.71
2018-11-21T07:35:39.453Z,2.79
2018-11-21T07:36:39.220Z,2.81
2018-11-21T07:37:39.183Z,2.68
2018-11-21T07:38:39.150Z,2.80
2018-11-21T07:39:39.117Z,2.79
2018-11-21T07:40:39.086Z,2.81
2018-11-21T07:41:39.051Z,2.77
2018-11-21T07:42:39.022Z,2.76
2018-11-21T07:43:38.984Z,2.79
2018-11-21T07:44:38.949Z,2.84
2018-11-21T07:45:38.923Z,2.80
2018-11-21T07:46:38.884Z,2.80
2018-11-21T07:47:38.856Z,2.80
2018-11-21T07:48:38.868Z,2.80
2018-11-21T07:49:38.795Z,2.79
2018-11-21T07:50:38.796Z,2.81
2018-11-21T07:51:38.720Z,2.77
2018-11-21T07:52:38.685Z,2.80
2018-11-21T07:53:38.653Z,2.79
2018-11-21T07:54:39.821Z,2.81
2018-11-21T07:55:38.587Z,2.81
2018-11-21T07:56:38.553Z,2.84
2018-11-21T07:57:38.525Z,2.89
2018-11-21T07:58:38.493Z,2.86
2018-11-21T07:59:38.455Z,2.80
2018-11-21T08:00:38.421Z,2.83
2018-11-21T08:01:38.388Z,2.79
2018-11-21T08:02:38.355Z,2.71
2018-11-21T08:03:38.321Z,2.73
2018-11-21T08:04:38.290Z,2.63
2018-11-21T08:05:44.180Z,2.68
2018-11-21T08:06:38.229Z,2.66
2018-11-21T08:07:38.192Z,2.59
2018-11-21T08:08:38.157Z,2.63
2018-11-21T08:09:38.125Z,2.56
2018-11-21T08:10:38.094Z,2.69
2018-11-21T08:11:38.060Z,2.71
2018-11-21T08:12:38.031Z,2.69
2018-11-21T08:13:37.993Z,2.79
2018-11-21T08:14:37.967Z,2.59
2018-11-21T08:15:37.936Z,2.61
2018-11-21T08:16:37.892Z,2.68
2018-11-21T08:17:37.861Z,2.84
2018-11-21T08:18:37.828Z,2.84
2018-11-21T08:19:37.794Z,2.79
2018-11-21T08:20:37.762Z,2.92
2018-11-21T08:21:37.728Z,2.89
2018-11-21T08:22:37.697Z,2.94
2018-11-21T08:23:37.664Z,2.90
2018-11-21T08:24:37.634Z,2.90
2018-11-21T08:25:37.598Z,2.71
2018-11-21T08:26:37.565Z,2.66
2018-11-21T08:27:37.535Z,2.63
2018-11-21T08:28:37.500Z,2.73
2018-11-21T08:29:37.474Z,2.89
2018-11-21T08:30:37.439Z,2.92
2018-11-21T08:31:37.402Z,2.79
2018-11-21T08:32:37.369Z,2.92
2018-11-21T08:33:37.338Z,2.92
2018-11-21T08:34:37.304Z,2.77
2018-11-21T08:35:37.272Z,2.84
2018-11-21T08:36:37.254Z,2.83
2018-11-21T08:37:37.219Z,2.90
2018-11-21T08:38:37.175Z,2.94
2018-11-21T08:39:37.141Z,2.80
2018-11-21T08:40:37.108Z,2.83
2018-11-21T08:41:37.075Z,2.69
2018-11-21T08:42:37.046Z,2.68
2018-11-21T08:43:37.012Z,2.79
2018-11-21T08:44:36.979Z,2.71
2018-11-21T08:45:36.945Z,2.79
2018-11-21T08:46:36.919Z,2.92
2018-11-21T08:47:36.882Z,2.97
2018-11-21T08:48:36.854Z,2.95
2018-11-21T08:49:36.816Z,3.04
2018-11-21T08:50:36.789Z,2.94
2018-11-21T08:51:36.751Z,2.97
2018-11-21T08:52:36.718Z,2.92
2018-11-21T08:53:36.845Z,3.02
2018-11-21T08:54:36.655Z,2.94
2018-11-21T08:55:36.622Z,3.05
2018-11-21T08:56:36.591Z,3.13
2018-11-21T08:57:36.557Z,3.20
2018-11-21T08:58:36.526Z,3.19
2018-11-21T08:59:36.493Z,2.98
2018-11-21T09:00:36.462Z,3.10
2018-11-21T09:01:36.428Z,3.12
2018-11-21T09:02:36.396Z,2.94
2018-11-21T09:03:36.370Z,3.10
2018-11-21T09:04:36.332Z,3.15
2018-11-21T09:05:36.300Z,3.04
2018-11-21T09:06:36.268Z,3.10
2018-11-21T09:07:36.237Z,3.08
2018-11-21T09:08:36.210Z,2.99
2018-11-21T09:09:36.174Z,3.15
2018-11-21T09:10:36.140Z,3.17
2018-11-21T09:11:36.108Z,3.17
2018-11-21T09:12:36.083Z,3.15
2018-11-21T09:13:36.046Z,3.12
2018-11-21T09:14:36.013Z,3.13
2018-11-21T09:15:35.987Z,3.28
2018-11-21T09:16:35.948Z,3.17
2018-11-21T09:17:35.917Z,3.20
2018-11-21T09:18:35.889Z,3.13
2018-11-21T09:19:35.852Z,3.07
2018-11-21T09:20:35.822Z,3.12
2018-11-21T09:21:35.789Z,3.19
2018-11-21T09:22:35.758Z,3.15
2018-11-21T09:23:35.726Z,2.92
2018-11-21T09:24:35.709Z,2.77
2018-11-21T09:25:35.663Z,2.92
2018-11-21T09:26:35.630Z,2.89
2018-11-21T09:27:35.627Z,2.98
2018-11-21T09:28:35.571Z,2.87
2018-11-21T09:29:35.534Z,2.90
2018-11-21T09:30:35.503Z,2.92
2018-11-21T09:31:35.471Z,3.01
2018-11-21T09:32:35.438Z,2.94
2018-11-21T09:33:35.406Z,3.15
2018-11-21T09:34:35.376Z,3.13
2018-11-21T09:35:35.344Z,3.25
2018-11-21T09:36:35.310Z,3.23
2018-11-21T09:37:35.279Z,3.31
2018-11-21T09:38:35.253Z,3.42
2018-11-21T09:39:35.215Z,3.45
2018-11-21T09:40:35.183Z,3.42
2018-11-21T09:41:35.150Z,3.44
2018-11-21T09:42:35.119Z,3.28
2018-11-21T09:43:35.088Z,3.28
2018-11-21T09:44:35.099Z,3.35
2018-11-21T09:45:35.024Z,3.05
2018-11-21T09:46:34.993Z,2.97
2018-11-21T09:47:34.964Z,3.10
2018-11-21T09:48:34.928Z,3.15
2018-11-21T09:49:34.899Z,3.23
2018-11-21T09:50:34.871Z,3.44
2018-11-21T09:51:34.834Z,3.25
2018-11-21T09:52:34.810Z,3.35
2018-11-21T09:53:34.777Z,3.54
2018-11-21T09:54:34.739Z,3.71
2018-11-21T09:55:34.711Z,3.77
2018-11-21T09:56:34.675Z,3.75
2018-11-21T09:57:34.647Z,3.70
2018-11-21T09:58:34.615Z,3.59
2018-11-21T09:59:34.581Z,3.54
2018-11-21T10:00:34.548Z,3.35
2018-11-21T10:01:34.518Z,3.34
2018-11-21T10:02:34.487Z,3.33
2018-11-21T10:03:34.468Z,3.22
2018-11-21T10:04:34.424Z,3.35
2018-11-21T10:05:34.393Z,3.35
2018-11-21T10:06:34.363Z,3.19
2018-11-21T10:07:34.333Z,3.28
2018-11-21T10:08:34.298Z,3.34
2018-11-21T10:09:34.269Z,3.25
2018-11-21T10:10:34.235Z,3.39
2018-11-21T10:11:34.209Z,3.42
2018-11-21T10:12:34.172Z,3.35
2018-11-21T10:13:34.144Z,3.23
2018-11-21T10:14:34.111Z,3.25
2018-11-21T10:15:34.083Z,3.25
2018-11-21T10:16:34.047Z,3.26
2018-11-21T10:17:34.015Z,3.31
2018-11-21T10:18:33.985Z,3.35
2018-11-21T10:19:33.953Z,3.35
2018-11-21T10:20:33.920Z,3.25
2018-11-21T10:21:33.889Z,3.33
2018-11-21T10:22:33.857Z,3.35
2018-11-21T10:23:33.827Z,3.39
2018-11-21T10:24:33.794Z,3.67
2018-11-21T10:25:33.764Z,3.75
2018-11-21T10:26:33.731Z,3.78
2018-11-21T10:27:33.708Z,3.80
2018-11-21T10:28:33.669Z,3.77
2018-11-21T10:29:33.638Z,3.62
2018-11-21T10:30:33.606Z,3.63
2018-11-21T10:31:33.575Z,3.63
2018-11-21T10:32:33.543Z,3.59
2018-11-21T10:33:33.518Z,3.84
2018-11-21T10:34:33.481Z,3.86
2018-11-21T10:35:35.955Z,3.95
2018-11-21T10:36:33.424Z,3.68
2018-11-21T10:37:33.387Z,3.78
2018-11-21T10:38:33.391Z,4.11
2018-11-21T10:39:33.336Z,3.90
2018-11-21T10:40:33.296Z,3.99
2018-11-21T10:41:33.263Z,3.96
2018-11-21T10:42:33.231Z,3.80
2018-11-21T10:43:33.202Z,3.80
2018-11-21T10:44:33.178Z,3.77
2018-11-21T10:45:33.137Z,3.68
2018-11-21T10:46:33.110Z,3.81
2018-11-21T10:47:33.078Z,3.89
2018-11-21T10:48:33.049Z,3.74
2018-11-21T10:49:33.015Z,3.81
2018-11-21T10:50:32.983Z,3.71
2018-11-21T10:51:32.963Z,3.86
2018-11-21T10:52:32.923Z,4.07
2018-11-21T10:53:32.894Z,4.08
2018-11-21T10:54:32.863Z,3.95
2018-11-21T10:55:32.834Z,3.78
2018-11-21T10:56:32.799Z,3.68
2018-11-21T10:57:32.773Z,3.72
2018-11-21T10:58:32.737Z,3.77
2018-11-21T10:59:32.707Z,3.92
2018-11-21T11:00:32.676Z,3.62
2018-11-21T11:01:32.647Z,3.75
2018-11-21T11:02:32.615Z,3.82
2018-11-21T11:03:32.584Z,3.82
2018-11-21T11:04:32.552Z,3.84
2018-11-21T11:05:32.522Z,3.89
2018-11-21T11:06:32.491Z,4.11
2018-11-21T11:07:32.460Z,4.18
2018-11-21T11:08:32.435Z,4.53
2018-11-21T11:09:32.399Z,4.28
2018-11-21T11:10:32.367Z,4.42
2018-11-21T11:11:32.336Z,4.39
2018-11-21T11:12:32.303Z,4.29
2018-11-21T11:13:35.347Z,4.35
2018-11-21T11:14:32.243Z,3.99
2018-11-21T11:15:32.214Z,3.98
2018-11-21T11:16:32.184Z,4.02
2018-11-21T11:17:32.157Z,4.04
2018-11-21T11:18:32.127Z,3.95
2018-11-21T11:19:32.092Z,3.74
2018-11-21T11:20:32.063Z,3.78
2018-11-21T11:21:32.036Z,3.75
2018-11-21T11:22:31.997Z,3.77
2018-11-21T11:23:31.966Z,3.72
2018-11-21T11:24:31.935Z,3.67
2018-11-21T11:25:31.905Z,3.67
2018-11-21T11:26:31.873Z,3.46
2018-11-21T11:27:31.842Z,3.59
2018-11-21T11:28:31.811Z,3.42
2018-11-21T11:29:31.780Z,3.57
2018-11-21T11:30:31.747Z,3.68
2018-11-21T11:31:31.716Z,3.62
2018-11-21T11:32:31.684Z,3.78
2018-11-21T11:33:31.652Z,3.95
2018-11-21T11:34:31.622Z,3.98
2018-11-21T11:35:31.595Z,3.99
2018-11-21T11:36:31.566Z,3.88
2018-11-21T11:37:31.544Z,3.84
2018-11-21T11:38:31.496Z,4.02
2018-11-21T11:39:31.465Z,4.04
2018-11-21T11:40:31.436Z,3.99
2018-11-21T11:41:31.402Z,4.02
2018-11-21T11:42:31.371Z,4.08
2018-11-21T11:43:31.340Z,4.02
2018-11-21T11:44:31.322Z,4.11
2018-11-21T11:45:31.276Z,4.25
2018-11-21T11:46:31.246Z,4.04
2018-11-21T11:47:31.216Z,3.92
2018-11-21T11:48:31.182Z,3.92
2018-11-21T11:49:31.151Z,4.07
2018-11-21T11:50:31.123Z,4.11
2018-11-21T11:51:31.091Z,4.26
2018-11-21T11:52:31.062Z,4.11
2018-11-21T11:53:31.029Z,4.02
2018-11-21T11:54:31.001Z,3.92
2018-11-21T11:55:30.967Z,3.98
2018-11-21T11:56:30.935Z,4.00
2018-11-21T11:57:30.906Z,3.82
2018-11-21T11:58:30.873Z,3.86
2018-11-21T11:59:30.843Z,3.84
2018-11-21T12:00:30.812Z,3.92
2018-11-21T12:01:30.786Z,3.95
2018-11-21T12:02:30.752Z,3.95
2018-11-21T12:03:30.721Z,4.00
2018-11-21T12:04:30.690Z,4.04
2018-11-21T12:05:30.657Z,3.98
2018-11-21T12:06:30.625Z,3.99
2018-11-21T12:07:30.596Z,4.14
2018-11-21T12:08:30.564Z,3.88
2018-11-21T12:09:30.533Z,3.68
2018-11-21T12:10:30.504Z,3.62
2018-11-21T12:11:30.473Z,3.77
2018-11-21T12:12:30.439Z,3.88
2018-11-21T12:13:30.420Z,3.77
2018-11-21T12:14:30.377Z,3.92
2018-11-21T12:15:30.347Z,3.89
2018-11-21T12:16:30.315Z,3.77
2018-11-21T12:17:31.392Z,3.77
2018-11-21T12:18:30.252Z,3.62
2018-11-21T12:19:30.227Z,3.63
2018-11-21T12:20:30.189Z,3.77
2018-11-21T12:21:30.158Z,3.74
2018-11-21T12:22:30.128Z,3.72
2018-11-21T12:23:30.098Z,3.74
2018-11-21T12:24:30.063Z,3.68
2018-11-21T12:25:30.032Z,3.57
2018-11-21T12:26:30.000Z,3.54
2018-11-21T12:27:29.969Z,3.46
2018-11-21T12:28:29.937Z,3.60
2018-11-21T12:29:29.906Z,3.75
2018-11-21T12:30:29.874Z,3.77
2018-11-21T12:31:29.849Z,3.75
2018-11-21T12:32:29.811Z,3.62
2018-11-21T12:33:29.779Z,3.67
2018-11-21T12:34:29.750Z,3.72
2018-11-21T12:35:29.716Z,3.77
2018-11-21T12:36:29.684Z,3.67
2018-11-21T12:37:29.655Z,3.60
2018-11-21T12:38:29.621Z,3.62
2018-11-21T12:39:29.590Z,3.71
2018-11-21T12:40:29.557Z,3.77
2018-11-21T12:41:29.528Z,3.67
2018-11-21T12:42:29.494Z,3.50
2018-11-21T12:43:29.463Z,3.59
2018-11-21T12:45:11.784Z,3.64
2018-11-21T12:46:11.543Z,3.71
2018-11-21T12:47:11.524Z,3.68
2018-11-21T12:48:11.480Z,3.78
2018-11-21T12:49:11.449Z,3.77
2018-11-21T12:50:11.416Z,3.86
2018-11-21T12:51:11.391Z,3.62
2018-11-21T12:52:11.352Z,3.81
2018-11-21T12:53:11.322Z,3.57
2018-11-21T12:54:11.291Z,3.63
2018-11-21T12:55:11.257Z,3.74
2018-11-21T12:56:11.225Z,3.75
2018-11-21T12:57:11.193Z,3.89
2018-11-21T12:58:11.167Z,3.98
2018-11-21T12:59:11.138Z,4.04
2018-11-21T13:00:11.099Z,3.88
2018-11-21T13:01:11.068Z,3.92
2018-11-21T13:02:11.034Z,3.96
2018-11-21T13:03:11.006Z,3.74
2018-11-21T13:04:10.970Z,3.81
2018-11-21T13:05:10.938Z,3.75
2018-11-21T13:06:10.905Z,3.71
2018-11-21T13:07:10.873Z,3.81
2018-11-21T13:08:10.845Z,3.75
2018-11-21T13:09:10.812Z,3.70
2018-11-21T13:10:10.778Z,3.64
2018-11-21T13:11:10.746Z,3.54
2018-11-21T13:12:10.717Z,3.45
2018-11-21T13:13:10.685Z,3.45
2018-11-21T13:14:10.653Z,3.49
2018-11-21T13:15:10.620Z,3.56
2018-11-21T13:16:10.587Z,3.62
2018-11-21T13:17:10.555Z,3.70
2018-11-21T13:18:10.523Z,3.62
2018-11-21T13:19:10.498Z,3.44
2018-11-21T13:20:10.465Z,3.31
2018-11-21T13:21:10.427Z,3.39
2018-11-21T13:22:10.402Z,3.50
2018-11-21T13:23:10.366Z,3.33
2018-11-21T13:24:10.330Z,3.31
2018-11-21T13:25:10.302Z,3.49
2018-11-21T13:26:10.266Z,3.44
2018-11-21T13:27:10.232Z,3.45
2018-11-21T13:28:10.206Z,3.56
2018-11-21T13:29:17.166Z,3.56
2018-11-21T13:30:10.136Z,3.56
2018-11-21T13:31:10.118Z,3.45
2018-11-21T13:32:10.072Z,3.52
2018-11-21T13:33:10.044Z,3.50
2018-11-21T13:34:10.007Z,3.42
2018-11-21T13:35:09.975Z,3.57